sensor_id;sensor_type;location;lat;lon;timestamp;P1;durP1;ratioP1;P2;durP2;ratioP2
19867;SDS011;10096;51.112;6.776;2023-08-21T00:01:46;4.97;;;3.70;;
19867;SDS011;10096;51.112;6.776;2023-08-21T00:04:13;4.97;;;3.33;;
19867;SDS011;10096;51.112;6.776;2023-08-21T00:06:40;6.07;;;3.70;;
19867;SDS011;10096;51.112;6.776;2023-08-21T00:09:07;4.38;;;3.67;;
19867;SDS011;10096;51.112;6.776;2023-08-21T00:11:35;5.07;;;3.58;;
19867;SDS011;10096;51.112;6.776;2023-08-21T00:14:03;5.80;;;3.70;;
19867;SDS011;10096;51.112;6.776;2023-08-21T00:16:30;5.18;;;3.45;;
19867;SDS011;10096;51.112;6.776;2023-08-21T00:18:57;4.50;;;3.47;;
19867;SDS011;10096;51.112;6.776;2023-08-21T00:21:24;7.00;;;4.30;;
19867;SDS011;10096;51.112;6.776;2023-08-21T00:23:51;6.53;;;3.85;;
19867;SDS011;10096;51.112;6.776;2023-08-21T00:26:18;4.30;;;3.55;;
19867;SDS011;10096;51.112;6.776;2023-08-21T00:28:47;5.00;;;4.00;;
19867;SDS011;10096;51.112;6.776;2023-08-21T00:31:14;6.93;;;4.00;;
19867;SDS011;10096;51.112;6.776;2023-08-21T00:33:41;7.80;;;3.72;;
19867;SDS011;10096;51.112;6.776;2023-08-21T00:36:08;8.77;;;3.72;;
19867;SDS011;10096;51.112;6.776;2023-08-21T00:38:35;6.97;;;3.70;;
19867;SDS011;10096;51.112;6.776;2023-08-21T00:41:01;7.10;;;3.95;;
19867;SDS011;10096;51.112;6.776;2023-08-21T00:43:28;6.05;;;3.47;;
19867;SDS011;10096;51.112;6.776;2023-08-21T00:45:57;4.85;;;3.50;;
19867;SDS011;10096;51.112;6.776;2023-08-21T00:48:24;14.27;;;3.78;;
19867;SDS011;10096;51.112;6.776;2023-08-21T00:50:52;4.55;;;3.53;;
19867;SDS011;10096;51.112;6.776;2023-08-21T00:53:19;7.07;;;3.80;;
19867;SDS011;10096;51.112;6.776;2023-08-21T00:55:46;4.70;;;3.55;;
19867;SDS011;10096;51.112;6.776;2023-08-21T00:58:13;7.93;;;4.20;;
19867;SDS011;10096;51.112;6.776;2023-08-21T01:00:41;6.90;;;3.85;;
19867;SDS011;10096;51.112;6.776;2023-08-21T01:03:11;5.47;;;3.67;;
19867;SDS011;10096;51.112;6.776;2023-08-21T01:05:38;6.88;;;4.40;;
19867;SDS011;10096;51.112;6.776;2023-08-21T01:08:06;6.75;;;3.80;;
19867;SDS011;10096;51.112;6.776;2023-08-21T01:10:39;7.28;;;4.22;;
19867;SDS011;10096;51.112;6.776;2023-08-21T01:13:15;5.38;;;3.85;;
19867;SDS011;10096;51.112;6.776;2023-08-21T01:15:50;6.25;;;3.97;;
19867;SDS011;10096;51.112;6.776;2023-08-21T01:18:21;6.00;;;4.28;;
19867;SDS011;10096;51.112;6.776;2023-08-21T01:20:48;6.32;;;4.13;;
19867;SDS011;10096;51.112;6.776;2023-08-21T01:23:42;6.50;;;4.00;;
19867;SDS011;10096;51.112;6.776;2023-08-21T01:26:09;4.82;;;3.65;;
19867;SDS011;10096;51.112;6.776;2023-08-21T01:28:36;4.25;;;3.25;;
19867;SDS011;10096;51.112;6.776;2023-08-21T01:31:05;5.38;;;3.40;;
19867;SDS011;10096;51.112;6.776;2023-08-21T01:33:39;5.70;;;3.70;;
19867;SDS011;10096;51.112;6.776;2023-08-21T01:36:10;8.27;;;4.00;;
19867;SDS011;10096;51.112;6.776;2023-08-21T01:38:39;4.47;;;3.70;;
19867;SDS011;10096;51.112;6.776;2023-08-21T01:41:07;4.75;;;3.80;;
19867;SDS011;10096;51.112;6.776;2023-08-21T01:43:34;5.57;;;3.88;;
19867;SDS011;10096;51.112;6.776;2023-08-21T01:46:01;6.47;;;3.85;;
19867;SDS011;10096;51.112;6.776;2023-08-21T01:48:31;6.10;;;3.67;;
19867;SDS011;10096;51.112;6.776;2023-08-21T01:51:00;6.00;;;3.97;;
19867;SDS011;10096;51.112;6.776;2023-08-21T01:53:27;9.02;;;4.45;;
19867;SDS011;10096;51.112;6.776;2023-08-21T01:55:57;4.35;;;3.60;;
19867;SDS011;10096;51.112;6.776;2023-08-21T01:58:23;5.20;;;3.60;;
19867;SDS011;10096;51.112;6.776;2023-08-21T02:00:50;5.15;;;3.78;;
19867;SDS011;10096;51.112;6.776;2023-08-21T02:03:18;7.93;;;4.20;;
19867;SDS011;10096;51.112;6.776;2023-08-21T02:05:44;5.15;;;3.67;;
19867;SDS011;10096;51.112;6.776;2023-08-21T02:08:12;5.65;;;3.60;;
19867;SDS011;10096;51.112;6.776;2023-08-21T02:10:46;7.85;;;4.03;;
19867;SDS011;10096;51.112;6.776;2023-08-21T02:13:18;5.70;;;3.55;;
19867;SDS011;10096;51.112;6.776;2023-08-21T02:15:45;6.50;;;3.65;;
19867;SDS011;10096;51.112;6.776;2023-08-21T02:18:12;8.38;;;4.55;;
19867;SDS011;10096;51.112;6.776;2023-08-21T02:20:39;6.45;;;4.20;;
19867;SDS011;10096;51.112;6.776;2023-08-21T02:23:06;4.53;;;3.55;;
19867;SDS011;10096;51.112;6.776;2023-08-21T02:25:33;7.75;;;3.92;;
19867;SDS011;10096;51.112;6.776;2023-08-21T02:28:00;6.72;;;3.67;;
19867;SDS011;10096;51.112;6.776;2023-08-21T02:30:30;6.00;;;4.32;;
19867;SDS011;10096;51.112;6.776;2023-08-21T02:32:57;4.72;;;3.80;;
19867;SDS011;10096;51.112;6.776;2023-08-21T02:35:24;6.03;;;3.70;;
19867;SDS011;10096;51.112;6.776;2023-08-21T02:37:51;5.13;;;4.53;;
19867;SDS011;10096;51.112;6.776;2023-08-21T02:40:18;6.45;;;3.50;;
19867;SDS011;10096;51.112;6.776;2023-08-21T02:42:45;4.20;;;3.60;;
19867;SDS011;10096;51.112;6.776;2023-08-21T02:45:12;6.25;;;3.67;;
19867;SDS011;10096;51.112;6.776;2023-08-21T02:47:41;6.00;;;3.97;;
19867;SDS011;10096;51.112;6.776;2023-08-21T02:50:09;5.10;;;3.70;;
19867;SDS011;10096;51.112;6.776;2023-08-21T02:52:36;4.13;;;3.55;;
19867;SDS011;10096;51.112;6.776;2023-08-21T02:55:03;4.43;;;3.72;;
19867;SDS011;10096;51.112;6.776;2023-08-21T02:57:31;7.00;;;4.50;;
19867;SDS011;10096;51.112;6.776;2023-08-21T02:59:59;5.95;;;3.92;;
19867;SDS011;10096;51.112;6.776;2023-08-21T03:02:28;5.90;;;3.80;;
19867;SDS011;10096;51.112;6.776;2023-08-21T03:04:56;6.25;;;3.53;;
19867;SDS011;10096;51.112;6.776;2023-08-21T03:07:26;5.47;;;3.95;;
19867;SDS011;10096;51.112;6.776;2023-08-21T03:09:53;5.97;;;3.72;;
19867;SDS011;10096;51.112;6.776;2023-08-21T03:12:20;4.68;;;3.50;;
19867;SDS011;10096;51.112;6.776;2023-08-21T03:17:29;5.63;;;4.10;;
19867;SDS011;10096;51.112;6.776;2023-08-21T03:19:57;7.10;;;4.28;;
19867;SDS011;10096;51.112;6.776;2023-08-21T03:22:24;6.88;;;4.20;;
19867;SDS011;10096;51.112;6.776;2023-08-21T03:24:51;6.60;;;4.20;;
19867;SDS011;10096;51.112;6.776;2023-08-21T03:27:18;6.45;;;4.15;;
19867;SDS011;10096;51.112;6.776;2023-08-21T03:29:48;6.95;;;3.70;;
19867;SDS011;10096;51.112;6.776;2023-08-21T03:32:17;6.47;;;3.88;;
19867;SDS011;10096;51.112;6.776;2023-08-21T03:34:44;4.00;;;3.60;;
19867;SDS011;10096;51.112;6.776;2023-08-21T03:37:12;5.78;;;4.15;;
19867;SDS011;10096;51.112;6.776;2023-08-21T03:39:39;6.65;;;3.80;;
19867;SDS011;10096;51.112;6.776;2023-08-21T03:42:07;6.97;;;5.47;;
19867;SDS011;10096;51.112;6.776;2023-08-21T03:44:34;6.05;;;3.95;;
19867;SDS011;10096;51.112;6.776;2023-08-21T03:47:01;6.63;;;3.75;;
19867;SDS011;10096;51.112;6.776;2023-08-21T03:49:28;6.18;;;4.25;;
19867;SDS011;10096;51.112;6.776;2023-08-21T03:51:55;6.97;;;4.05;;
19867;SDS011;10096;51.112;6.776;2023-08-21T03:54:23;4.57;;;3.95;;
19867;SDS011;10096;51.112;6.776;2023-08-21T03:56:50;5.40;;;4.38;;
19867;SDS011;10096;51.112;6.776;2023-08-21T03:59:17;5.53;;;3.92;;
19867;SDS011;10096;51.112;6.776;2023-08-21T04:01:44;5.25;;;4.15;;
19867;SDS011;10096;51.112;6.776;2023-08-21T04:04:11;7.50;;;4.05;;
19867;SDS011;10096;51.112;6.776;2023-08-21T04:06:38;7.97;;;4.18;;
19867;SDS011;10096;51.112;6.776;2023-08-21T04:09:05;4.88;;;3.80;;
19867;SDS011;10096;51.112;6.776;2023-08-21T04:11:34;6.28;;;4.57;;
19867;SDS011;10096;51.112;6.776;2023-08-21T04:14:01;8.00;;;4.70;;
19867;SDS011;10096;51.112;6.776;2023-08-21T04:16:30;7.25;;;4.78;;
19867;SDS011;10096;51.112;6.776;2023-08-21T04:18:59;10.15;;;5.20;;
19867;SDS011;10096;51.112;6.776;2023-08-21T04:21:26;7.90;;;4.70;;
19867;SDS011;10096;51.112;6.776;2023-08-21T04:23:52;7.45;;;4.63;;
19867;SDS011;10096;51.112;6.776;2023-08-21T04:26:19;7.55;;;4.45;;
19867;SDS011;10096;51.112;6.776;2023-08-21T04:28:48;5.90;;;4.28;;
19867;SDS011;10096;51.112;6.776;2023-08-21T04:31:17;7.05;;;4.22;;
19867;SDS011;10096;51.112;6.776;2023-08-21T04:33:44;6.45;;;4.40;;
19867;SDS011;10096;51.112;6.776;2023-08-21T04:36:14;7.35;;;4.25;;
19867;SDS011;10096;51.112;6.776;2023-08-21T04:38:41;7.47;;;4.88;;
19867;SDS011;10096;51.112;6.776;2023-08-21T04:41:09;7.63;;;4.40;;
19867;SDS011;10096;51.112;6.776;2023-08-21T04:43:36;7.03;;;4.30;;
19867;SDS011;10096;51.112;6.776;2023-08-21T04:46:05;6.95;;;4.10;;
19867;SDS011;10096;51.112;6.776;2023-08-21T04:48:32;7.45;;;5.03;;
19867;SDS011;10096;51.112;6.776;2023-08-21T04:50:59;5.50;;;4.95;;
19867;SDS011;10096;51.112;6.776;2023-08-21T04:53:25;8.70;;;6.45;;
19867;SDS011;10096;51.112;6.776;2023-08-21T04:55:52;16.10;;;6.78;;
19867;SDS011;10096;51.112;6.776;2023-08-21T04:58:20;9.80;;;5.10;;
19867;SDS011;10096;51.112;6.776;2023-08-21T05:00:47;7.32;;;4.88;;
19867;SDS011;10096;51.112;6.776;2023-08-21T05:03:16;7.45;;;5.22;;
19867;SDS011;10096;51.112;6.776;2023-08-21T05:05:51;9.10;;;5.35;;
19867;SDS011;10096;51.112;6.776;2023-08-21T05:08:19;8.18;;;6.03;;
19867;SDS011;10096;51.112;6.776;2023-08-21T05:10:46;8.18;;;5.22;;
19867;SDS011;10096;51.112;6.776;2023-08-21T05:13:13;9.77;;;5.55;;
19867;SDS011;10096;51.112;6.776;2023-08-21T05:15:42;7.38;;;5.65;;
19867;SDS011;10096;51.112;6.776;2023-08-21T05:18:09;9.07;;;5.32;;
19867;SDS011;10096;51.112;6.776;2023-08-21T05:20:38;7.50;;;5.47;;
19867;SDS011;10096;51.112;6.776;2023-08-21T05:23:07;9.63;;;5.78;;
19867;SDS011;10096;51.112;6.776;2023-08-21T05:25:34;7.72;;;5.95;;
19867;SDS011;10096;51.112;6.776;2023-08-21T05:28:04;7.22;;;5.20;;
19867;SDS011;10096;51.112;6.776;2023-08-21T05:30:31;8.00;;;5.40;;
19867;SDS011;10096;51.112;6.776;2023-08-21T05:33:03;8.13;;;5.65;;
19867;SDS011;10096;51.112;6.776;2023-08-21T05:35:32;6.80;;;4.93;;
19867;SDS011;10096;51.112;6.776;2023-08-21T05:38:04;9.93;;;5.30;;
19867;SDS011;10096;51.112;6.776;2023-08-21T05:40:31;5.57;;;4.40;;
19867;SDS011;10096;51.112;6.776;2023-08-21T05:42:58;5.80;;;4.35;;
19867;SDS011;10096;51.112;6.776;2023-08-21T05:45:25;6.15;;;4.38;;
19867;SDS011;10096;51.112;6.776;2023-08-21T05:47:53;5.70;;;4.65;;
19867;SDS011;10096;51.112;6.776;2023-08-21T05:50:22;5.03;;;4.22;;
19867;SDS011;10096;51.112;6.776;2023-08-21T05:52:49;6.65;;;4.80;;
19867;SDS011;10096;51.112;6.776;2023-08-21T05:55:18;7.22;;;4.82;;
19867;SDS011;10096;51.112;6.776;2023-08-21T05:57:46;7.13;;;4.95;;
19867;SDS011;10096;51.112;6.776;2023-08-21T06:00:15;7.32;;;4.70;;
19867;SDS011;10096;51.112;6.776;2023-08-21T06:02:42;6.65;;;4.68;;
19867;SDS011;10096;51.112;6.776;2023-08-21T06:05:10;6.07;;;4.60;;
19867;SDS011;10096;51.112;6.776;2023-08-21T06:07:37;7.45;;;4.72;;
19867;SDS011;10096;51.112;6.776;2023-08-21T06:10:05;6.53;;;4.32;;
19867;SDS011;10096;51.112;6.776;2023-08-21T06:12:34;9.80;;;7.93;;
19867;SDS011;10096;51.112;6.776;2023-08-21T06:15:01;6.80;;;5.80;;
19867;SDS011;10096;51.112;6.776;2023-08-21T06:17:40;7.32;;;4.75;;
19867;SDS011;10096;51.112;6.776;2023-08-21T06:20:08;6.82;;;5.03;;
19867;SDS011;10096;51.112;6.776;2023-08-21T06:22:39;6.97;;;4.50;;
19867;SDS011;10096;51.112;6.776;2023-08-21T06:25:11;9.55;;;4.60;;
19867;SDS011;10096;51.112;6.776;2023-08-21T06:27:40;5.57;;;4.35;;
19867;SDS011;10096;51.112;6.776;2023-08-21T06:30:07;8.60;;;5.47;;
19867;SDS011;10096;51.112;6.776;2023-08-21T06:32:35;5.40;;;4.25;;
19867;SDS011;10096;51.112;6.776;2023-08-21T06:35:02;6.85;;;4.93;;
19867;SDS011;10096;51.112;6.776;2023-08-21T06:37:30;5.80;;;4.80;;
19867;SDS011;10096;51.112;6.776;2023-08-21T06:39:57;5.88;;;4.25;;
19867;SDS011;10096;51.112;6.776;2023-08-21T06:42:27;10.32;;;4.43;;
19867;SDS011;10096;51.112;6.776;2023-08-21T06:44:55;8.18;;;5.03;;
19867;SDS011;10096;51.112;6.776;2023-08-21T06:47:22;7.18;;;5.38;;
19867;SDS011;10096;51.112;6.776;2023-08-21T06:49:49;8.80;;;4.85;;
19867;SDS011;10096;51.112;6.776;2023-08-21T06:52:16;6.80;;;4.50;;
19867;SDS011;10096;51.112;6.776;2023-08-21T06:54:43;7.05;;;4.63;;
19867;SDS011;10096;51.112;6.776;2023-08-21T06:57:11;7.80;;;4.90;;
19867;SDS011;10096;51.112;6.776;2023-08-21T06:59:40;5.53;;;4.65;;
19867;SDS011;10096;51.112;6.776;2023-08-21T07:02:09;7.07;;;4.70;;
19867;SDS011;10096;51.112;6.776;2023-08-21T07:04:39;5.82;;;3.90;;
19867;SDS011;10096;51.112;6.776;2023-08-21T07:07:24;6.88;;;4.35;;
19867;SDS011;10096;51.112;6.776;2023-08-21T07:09:56;6.20;;;4.15;;
19867;SDS011;10096;51.112;6.776;2023-08-21T07:12:24;6.82;;;4.35;;
19867;SDS011;10096;51.112;6.776;2023-08-21T07:14:51;6.75;;;4.05;;
19867;SDS011;10096;51.112;6.776;2023-08-21T07:17:19;6.53;;;4.00;;
19867;SDS011;10096;51.112;6.776;2023-08-21T07:19:46;7.60;;;5.20;;
19867;SDS011;10096;51.112;6.776;2023-08-21T07:22:16;5.80;;;4.00;;
19867;SDS011;10096;51.112;6.776;2023-08-21T07:24:45;8.88;;;5.93;;
19867;SDS011;10096;51.112;6.776;2023-08-21T07:27:16;10.38;;;5.07;;
19867;SDS011;10096;51.112;6.776;2023-08-21T07:29:43;4.30;;;3.67;;
19867;SDS011;10096;51.112;6.776;2023-08-21T07:32:20;5.03;;;4.38;;
19867;SDS011;10096;51.112;6.776;2023-08-21T07:34:51;8.10;;;4.03;;
19867;SDS011;10096;51.112;6.776;2023-08-21T07:37:21;5.25;;;4.07;;
19867;SDS011;10096;51.112;6.776;2023-08-21T07:39:52;5.80;;;4.45;;
19867;SDS011;10096;51.112;6.776;2023-08-21T07:42:22;6.30;;;5.35;;
19867;SDS011;10096;51.112;6.776;2023-08-21T07:44:49;7.57;;;4.68;;
19867;SDS011;10096;51.112;6.776;2023-08-21T07:47:16;6.07;;;3.92;;
19867;SDS011;10096;51.112;6.776;2023-08-21T07:49:46;8.38;;;4.80;;
19867;SDS011;10096;51.112;6.776;2023-08-21T07:52:13;6.28;;;4.25;;
19867;SDS011;10096;51.112;6.776;2023-08-21T07:54:41;8.27;;;4.85;;
19867;SDS011;10096;51.112;6.776;2023-08-21T07:57:08;9.02;;;5.65;;
19867;SDS011;10096;51.112;6.776;2023-08-21T07:59:35;10.93;;;5.05;;
19867;SDS011;10096;51.112;6.776;2023-08-21T08:02:06;7.28;;;4.88;;
19867;SDS011;10096;51.112;6.776;2023-08-21T08:04:37;4.82;;;4.30;;
19867;SDS011;10096;51.112;6.776;2023-08-21T08:07:06;7.65;;;4.68;;
19867;SDS011;10096;51.112;6.776;2023-08-21T08:09:33;7.30;;;5.18;;
19867;SDS011;10096;51.112;6.776;2023-08-21T08:12:24;6.35;;;4.75;;
19867;SDS011;10096;51.112;6.776;2023-08-21T08:14:53;7.25;;;4.75;;
19867;SDS011;10096;51.112;6.776;2023-08-21T08:17:21;6.03;;;4.38;;
19867;SDS011;10096;51.112;6.776;2023-08-21T08:19:47;7.28;;;4.40;;
19867;SDS011;10096;51.112;6.776;2023-08-21T08:22:17;6.35;;;5.25;;
19867;SDS011;10096;51.112;6.776;2023-08-21T08:24:47;7.20;;;4.30;;
19867;SDS011;10096;51.112;6.776;2023-08-21T08:27:14;7.38;;;4.47;;
19867;SDS011;10096;51.112;6.776;2023-08-21T08:29:41;5.22;;;4.70;;
19867;SDS011;10096;51.112;6.776;2023-08-21T08:32:10;7.53;;;4.80;;
19867;SDS011;10096;51.112;6.776;2023-08-21T08:34:37;7.35;;;4.63;;
19867;SDS011;10096;51.112;6.776;2023-08-21T08:37:04;8.55;;;4.90;;
19867;SDS011;10096;51.112;6.776;2023-08-21T08:39:33;6.97;;;4.80;;
19867;SDS011;10096;51.112;6.776;2023-08-21T08:42:02;11.02;;;5.30;;
19867;SDS011;10096;51.112;6.776;2023-08-21T08:44:32;6.75;;;4.68;;
19867;SDS011;10096;51.112;6.776;2023-08-21T08:47:10;5.13;;;4.25;;
19867;SDS011;10096;51.112;6.776;2023-08-21T08:49:41;5.22;;;4.68;;
19867;SDS011;10096;51.112;6.776;2023-08-21T08:52:07;6.22;;;4.45;;
19867;SDS011;10096;51.112;6.776;2023-08-21T08:54:37;6.55;;;5.35;;
19867;SDS011;10096;51.112;6.776;2023-08-21T08:57:05;9.35;;;5.88;;
19867;SDS011;10096;51.112;6.776;2023-08-21T08:59:34;9.57;;;5.47;;
19867;SDS011;10096;51.112;6.776;2023-08-21T09:02:01;7.57;;;4.60;;
19867;SDS011;10096;51.112;6.776;2023-08-21T09:04:29;7.20;;;5.00;;
19867;SDS011;10096;51.112;6.776;2023-08-21T09:07:05;6.88;;;5.55;;
19867;SDS011;10096;51.112;6.776;2023-08-21T09:09:40;5.65;;;4.78;;
19867;SDS011;10096;51.112;6.776;2023-08-21T09:12:11;7.82;;;5.13;;
19867;SDS011;10096;51.112;6.776;2023-08-21T09:14:39;8.20;;;5.53;;
19867;SDS011;10096;51.112;6.776;2023-08-21T09:17:12;8.30;;;5.10;;
19867;SDS011;10096;51.112;6.776;2023-08-21T09:19:49;6.93;;;4.30;;
19867;SDS011;10096;51.112;6.776;2023-08-21T09:22:16;7.15;;;4.80;;
19867;SDS011;10096;51.112;6.776;2023-08-21T09:27:48;8.20;;;4.88;;
19867;SDS011;10096;51.112;6.776;2023-08-21T09:30:24;9.45;;;5.10;;
19867;SDS011;10096;51.112;6.776;2023-08-21T09:32:52;5.95;;;5.15;;
19867;SDS011;10096;51.112;6.776;2023-08-21T09:35:20;9.50;;;5.18;;
19867;SDS011;10096;51.112;6.776;2023-08-21T09:37:51;6.85;;;5.70;;
19867;SDS011;10096;51.112;6.776;2023-08-21T09:40:19;7.20;;;4.80;;
19867;SDS011;10096;51.112;6.776;2023-08-21T09:42:52;5.35;;;4.47;;
19867;SDS011;10096;51.112;6.776;2023-08-21T09:45:21;5.68;;;4.93;;
19867;SDS011;10096;51.112;6.776;2023-08-21T09:47:48;7.22;;;4.88;;
19867;SDS011;10096;51.112;6.776;2023-08-21T09:50:25;9.13;;;4.93;;
19867;SDS011;10096;51.112;6.776;2023-08-21T09:52:55;5.18;;;4.47;;
19867;SDS011;10096;51.112;6.776;2023-08-21T09:58:10;6.80;;;5.00;;
19867;SDS011;10096;51.112;6.776;2023-08-21T10:00:38;6.10;;;5.03;;
19867;SDS011;10096;51.112;6.776;2023-08-21T10:03:08;6.78;;;4.88;;
19867;SDS011;10096;51.112;6.776;2023-08-21T10:05:45;7.50;;;5.25;;
19867;SDS011;10096;51.112;6.776;2023-08-21T10:08:18;5.57;;;4.85;;
19867;SDS011;10096;51.112;6.776;2023-08-21T10:10:56;5.80;;;5.18;;
19867;SDS011;10096;51.112;6.776;2023-08-21T10:13:28;5.57;;;5.03;;
19867;SDS011;10096;51.112;6.776;2023-08-21T10:15:55;7.30;;;4.65;;
19867;SDS011;10096;51.112;6.776;2023-08-21T10:18:31;5.60;;;5.03;;
19867;SDS011;10096;51.112;6.776;2023-08-21T10:23:57;6.30;;;4.25;;
19867;SDS011;10096;51.112;6.776;2023-08-21T10:26:28;7.07;;;4.30;;
19867;SDS011;10096;51.112;6.776;2023-08-21T10:28:58;5.88;;;4.63;;
19867;SDS011;10096;51.112;6.776;2023-08-21T10:31:33;6.38;;;5.22;;
19867;SDS011;10096;51.112;6.776;2023-08-21T10:34:02;7.53;;;5.28;;
19867;SDS011;10096;51.112;6.776;2023-08-21T10:37:04;5.97;;;5.07;;
19867;SDS011;10096;51.112;6.776;2023-08-21T10:43:00;5.43;;;4.57;;
19867;SDS011;10096;51.112;6.776;2023-08-21T10:45:29;8.25;;;5.32;;
19867;SDS011;10096;51.112;6.776;2023-08-21T10:50:12;8.73;;;5.60;;
19867;SDS011;10096;51.112;6.776;2023-08-21T10:51:18;8.50;;;4.95;;
19867;SDS011;10096;51.112;6.776;2023-08-21T10:53:45;7.25;;;4.60;;
19867;SDS011;10096;51.112;6.776;2023-08-21T10:56:12;6.65;;;5.13;;
19867;SDS011;10096;51.112;6.776;2023-08-21T10:58:43;7.45;;;5.38;;
19867;SDS011;10096;51.112;6.776;2023-08-21T11:01:31;6.85;;;5.03;;
19867;SDS011;10096;51.112;6.776;2023-08-21T11:04:16;5.82;;;4.85;;
19867;SDS011;10096;51.112;6.776;2023-08-21T11:06:44;9.65;;;6.40;;
19867;SDS011;10096;51.112;6.776;2023-08-21T11:09:21;6.43;;;5.32;;
19867;SDS011;10096;51.112;6.776;2023-08-21T11:11:58;7.95;;;6.50;;
19867;SDS011;10096;51.112;6.776;2023-08-21T11:14:36;7.93;;;6.00;;
19867;SDS011;10096;51.112;6.776;2023-08-21T11:17:05;6.72;;;5.47;;
19867;SDS011;10096;51.112;6.776;2023-08-21T11:19:34;7.95;;;5.55;;
19867;SDS011;10096;51.112;6.776;2023-08-21T11:22:02;10.23;;;5.97;;
19867;SDS011;10096;51.112;6.776;2023-08-21T11:24:31;7.97;;;5.47;;
19867;SDS011;10096;51.112;6.776;2023-08-21T11:27:20;7.28;;;5.55;;
19867;SDS011;10096;51.112;6.776;2023-08-21T11:29:48;7.90;;;5.50;;
19867;SDS011;10096;51.112;6.776;2023-08-21T11:32:38;6.95;;;5.28;;
19867;SDS011;10096;51.112;6.776;2023-08-21T11:35:05;6.75;;;5.20;;
19867;SDS011;10096;51.112;6.776;2023-08-21T11:37:33;5.68;;;4.68;;
19867;SDS011;10096;51.112;6.776;2023-08-21T11:40:06;6.95;;;5.63;;
19867;SDS011;10096;51.112;6.776;2023-08-21T11:42:42;6.32;;;5.45;;
19867;SDS011;10096;51.112;6.776;2023-08-21T11:45:10;9.88;;;5.93;;
19867;SDS011;10096;51.112;6.776;2023-08-21T11:47:39;8.63;;;5.75;;
19867;SDS011;10096;51.112;6.776;2023-08-21T11:50:07;7.90;;;5.30;;
19867;SDS011;10096;51.112;6.776;2023-08-21T11:52:37;7.72;;;5.57;;
19867;SDS011;10096;51.112;6.776;2023-08-21T11:55:09;8.10;;;5.72;;
19867;SDS011;10096;51.112;6.776;2023-08-21T11:57:48;7.13;;;4.82;;
19867;SDS011;10096;51.112;6.776;2023-08-21T12:00:28;7.20;;;4.88;;
19867;SDS011;10096;51.112;6.776;2023-08-21T12:03:05;6.80;;;4.97;;
19867;SDS011;10096;51.112;6.776;2023-08-21T12:05:34;7.85;;;4.88;;
19867;SDS011;10096;51.112;6.776;2023-08-21T12:08:11;7.43;;;5.07;;
19867;SDS011;10096;51.112;6.776;2023-08-21T12:10:49;6.47;;;5.15;;
19867;SDS011;10096;51.112;6.776;2023-08-21T12:13:31;7.22;;;5.50;;
19867;SDS011;10096;51.112;6.776;2023-08-21T12:15:58;6.57;;;5.35;;
19867;SDS011;10096;51.112;6.776;2023-08-21T12:21:11;7.45;;;4.55;;
19867;SDS011;10096;51.112;6.776;2023-08-21T12:23:47;7.82;;;5.88;;
19867;SDS011;10096;51.112;6.776;2023-08-21T12:26:14;10.95;;;6.32;;
19867;SDS011;10096;51.112;6.776;2023-08-21T12:28:46;6.90;;;5.00;;
19867;SDS011;10096;51.112;6.776;2023-08-21T12:31:13;5.20;;;4.55;;
19867;SDS011;10096;51.112;6.776;2023-08-21T12:33:42;7.55;;;5.40;;
19867;SDS011;10096;51.112;6.776;2023-08-21T12:36:11;6.38;;;5.40;;
19867;SDS011;10096;51.112;6.776;2023-08-21T12:38:38;6.78;;;4.97;;
19867;SDS011;10096;51.112;6.776;2023-08-21T12:41:22;7.82;;;4.95;;
19867;SDS011;10096;51.112;6.776;2023-08-21T12:43:51;7.40;;;5.95;;
19867;SDS011;10096;51.112;6.776;2023-08-21T12:46:19;6.78;;;5.43;;
19867;SDS011;10096;51.112;6.776;2023-08-21T12:48:47;9.25;;;5.18;;
19867;SDS011;10096;51.112;6.776;2023-08-21T12:51:14;7.38;;;5.20;;
19867;SDS011;10096;51.112;6.776;2023-08-21T12:53:41;8.45;;;5.50;;
19867;SDS011;10096;51.112;6.776;2023-08-21T12:56:08;5.38;;;4.70;;
19867;SDS011;10096;51.112;6.776;2023-08-21T12:58:35;8.27;;;5.20;;
19867;SDS011;10096;51.112;6.776;2023-08-21T13:01:02;8.25;;;4.93;;
19867;SDS011;10096;51.112;6.776;2023-08-21T13:03:30;6.35;;;5.38;;
19867;SDS011;10096;51.112;6.776;2023-08-21T13:05:58;6.57;;;4.90;;
19867;SDS011;10096;51.112;6.776;2023-08-21T13:08:26;7.45;;;5.32;;
19867;SDS011;10096;51.112;6.776;2023-08-21T13:10:54;6.40;;;4.65;;
19867;SDS011;10096;51.112;6.776;2023-08-21T13:13:24;8.27;;;5.13;;
19867;SDS011;10096;51.112;6.776;2023-08-21T13:15:51;6.53;;;4.47;;
19867;SDS011;10096;51.112;6.776;2023-08-21T13:18:22;7.68;;;4.55;;
19867;SDS011;10096;51.112;6.776;2023-08-21T13:20:56;7.50;;;5.10;;
19867;SDS011;10096;51.112;6.776;2023-08-21T13:23:34;7.47;;;5.07;;
19867;SDS011;10096;51.112;6.776;2023-08-21T13:26:01;7.05;;;5.35;;
19867;SDS011;10096;51.112;6.776;2023-08-21T13:28:28;5.18;;;4.25;;
19867;SDS011;10096;51.112;6.776;2023-08-21T13:30:56;7.22;;;4.60;;
19867;SDS011;10096;51.112;6.776;2023-08-21T13:33:23;7.47;;;5.13;;
19867;SDS011;10096;51.112;6.776;2023-08-21T13:35:50;7.75;;;5.55;;
19867;SDS011;10096;51.112;6.776;2023-08-21T13:38:26;8.10;;;4.78;;
19867;SDS011;10096;51.112;6.776;2023-08-21T13:40:53;6.88;;;4.95;;
19867;SDS011;10096;51.112;6.776;2023-08-21T13:43:20;9.20;;;5.18;;
19867;SDS011;10096;51.112;6.776;2023-08-21T13:45:47;6.93;;;4.38;;
19867;SDS011;10096;51.112;6.776;2023-08-21T13:48:16;8.25;;;4.85;;
19867;SDS011;10096;51.112;6.776;2023-08-21T13:50:43;7.03;;;4.28;;
19867;SDS011;10096;51.112;6.776;2023-08-21T13:53:10;6.35;;;4.63;;
19867;SDS011;10096;51.112;6.776;2023-08-21T13:55:39;7.10;;;4.20;;
19867;SDS011;10096;51.112;6.776;2023-08-21T13:58:06;8.38;;;5.18;;
19867;SDS011;10096;51.112;6.776;2023-08-21T14:00:33;8.05;;;5.28;;
19867;SDS011;10096;51.112;6.776;2023-08-21T14:03:00;8.57;;;4.90;;
19867;SDS011;10096;51.112;6.776;2023-08-21T14:05:27;7.57;;;4.57;;
19867;SDS011;10096;51.112;6.776;2023-08-21T14:07:56;6.18;;;4.53;;
19867;SDS011;10096;51.112;6.776;2023-08-21T14:10:23;5.93;;;4.35;;
19867;SDS011;10096;51.112;6.776;2023-08-21T14:12:53;8.05;;;4.85;;
19867;SDS011;10096;51.112;6.776;2023-08-21T14:15:22;5.20;;;4.47;;
19867;SDS011;10096;51.112;6.776;2023-08-21T14:17:50;6.32;;;4.10;;
19867;SDS011;10096;51.112;6.776;2023-08-21T14:20:17;5.55;;;4.57;;
19867;SDS011;10096;51.112;6.776;2023-08-21T14:22:44;8.15;;;5.07;;
19867;SDS011;10096;51.112;6.776;2023-08-21T14:25:12;6.82;;;4.18;;
19867;SDS011;10096;51.112;6.776;2023-08-21T14:27:40;6.75;;;4.28;;
19867;SDS011;10096;51.112;6.776;2023-08-21T14:30:10;7.05;;;4.03;;
19867;SDS011;10096;51.112;6.776;2023-08-21T14:32:41;8.43;;;4.47;;
19867;SDS011;10096;51.112;6.776;2023-08-21T14:35:08;9.93;;;4.28;;
19867;SDS011;10096;51.112;6.776;2023-08-21T14:37:35;6.45;;;4.70;;
19867;SDS011;10096;51.112;6.776;2023-08-21T14:40:07;7.38;;;4.55;;
19867;SDS011;10096;51.112;6.776;2023-08-21T14:42:35;6.68;;;3.95;;
19867;SDS011;10096;51.112;6.776;2023-08-21T14:45:03;6.47;;;4.13;;
19867;SDS011;10096;51.112;6.776;2023-08-21T14:47:32;7.88;;;3.95;;
19867;SDS011;10096;51.112;6.776;2023-08-21T14:50:01;5.40;;;3.80;;
19867;SDS011;10096;51.112;6.776;2023-08-21T14:52:30;5.90;;;3.90;;
19867;SDS011;10096;51.112;6.776;2023-08-21T14:54:58;4.40;;;3.72;;
19867;SDS011;10096;51.112;6.776;2023-08-21T14:57:25;5.43;;;3.58;;
19867;SDS011;10096;51.112;6.776;2023-08-21T14:59:52;4.88;;;4.40;;
19867;SDS011;10096;51.112;6.776;2023-08-21T15:05:08;10.63;;;6.07;;
19867;SDS011;10096;51.112;6.776;2023-08-21T15:07:36;10.90;;;4.68;;
19867;SDS011;10096;51.112;6.776;2023-08-21T15:10:04;5.78;;;3.85;;
19867;SDS011;10096;51.112;6.776;2023-08-21T15:12:32;5.82;;;4.10;;
19867;SDS011;10096;51.112;6.776;2023-08-21T15:14:59;8.30;;;4.45;;
19867;SDS011;10096;51.112;6.776;2023-08-21T15:17:29;5.07;;;3.28;;
19867;SDS011;10096;51.112;6.776;2023-08-21T15:19:57;12.75;;;5.70;;
19867;SDS011;10096;51.112;6.776;2023-08-21T15:22:25;7.15;;;3.83;;